createdAt,value
2022-11-16T00:00:40.941Z,2.87
2022-11-16T00:03:14.297Z,3.03
2022-11-16T00:05:45.073Z,2.87
2022-11-16T00:08:17.228Z,3.13
2022-11-16T00:10:50.141Z,2.90
2022-11-16T00:13:21.364Z,3.27
2022-11-16T00:15:58.924Z,3.10
2022-11-16T00:18:33.485Z,3.30
2022-11-16T00:21:07.086Z,3.57
2022-11-16T00:23:38.998Z,4.00
2022-11-16T00:26:10.984Z,3.87
2022-11-16T00:28:41.775Z,3.87
2022-11-16T00:31:13.310Z,4.20
2022-11-16T00:33:46.600Z,4.60
2022-11-16T00:36:17.984Z,4.33
2022-11-16T00:38:48.818Z,4.10
2022-11-16T00:41:19.687Z,4.10
2022-11-16T00:43:50.861Z,4.60
2022-11-16T00:46:22.073Z,3.87
2022-11-16T00:48:55.606Z,4.13
2022-11-16T00:51:26.341Z,3.77
2022-11-16T00:53:57.099Z,4.33
2022-11-16T00:56:28.577Z,4.23
2022-11-16T00:58:59.376Z,4.30
2022-11-16T01:01:30.347Z,4.37
2022-11-16T01:04:03.987Z,4.53
2022-11-16T01:06:35.091Z,4.80
2022-11-16T01:09:06.171Z,4.67
2022-11-16T01:11:54.538Z,4.60
2022-11-16T01:14:28.358Z,4.90
2022-11-16T01:16:59.114Z,5.33
2022-11-16T01:19:32.961Z,4.87
2022-11-16T01:22:04.023Z,4.93
2022-11-16T01:24:36.876Z,4.77
2022-11-16T01:27:10.093Z,5.67
2022-11-16T01:29:40.882Z,5.13
2022-11-16T01:32:12.021Z,5.30
2022-11-16T01:34:45.471Z,5.93
2022-11-16T01:37:19.066Z,4.83
2022-11-16T01:39:53.754Z,5.30
2022-11-16T01:42:26.372Z,4.97
2022-11-16T01:45:11.479Z,5.07
2022-11-16T01:47:42.279Z,4.70
2022-11-16T01:50:18.901Z,5.00
2022-11-16T01:52:55.528Z,5.50
2022-11-16T01:55:27.772Z,5.40
2022-11-16T01:57:59.851Z,5.50
2022-11-16T02:00:31.833Z,5.60
2022-11-16T02:03:02.948Z,5.70
2022-11-16T02:05:45.554Z,5.60
2022-11-16T02:08:46.809Z,5.43
2022-11-16T02:11:36.296Z,4.93
2022-11-16T02:14:18.301Z,6.30
2022-11-16T02:16:56.262Z,5.40
2022-11-16T02:20:16.800Z,6.10
2022-11-16T02:23:07.879Z,6.10
2022-11-16T02:25:54.124Z,5.33
2022-11-16T02:28:37.519Z,6.13
2022-11-16T02:31:18.092Z,6.30
2022-11-16T02:33:51.574Z,5.83
2022-11-16T02:36:27.067Z,5.23
2022-11-16T02:39:04.717Z,5.70
2022-11-16T02:41:39.510Z,5.47
2022-11-16T02:44:14.891Z,5.70
2022-11-16T02:46:51.474Z,5.87
2022-11-16T02:49:22.966Z,5.83
2022-11-16T02:51:54.921Z,5.30
2022-11-16T02:54:26.649Z,6.10
2022-11-16T02:57:19.147Z,7.13
2022-11-16T03:03:29.709Z,6.40
2022-11-16T03:06:06.684Z,5.70
2022-11-16T03:08:42.819Z,5.13
2022-11-16T03:11:26.875Z,4.63
2022-11-16T03:13:59.824Z,5.00
2022-11-16T03:16:34.980Z,4.60
2022-11-16T03:19:11.996Z,5.23
2022-11-16T03:21:47.130Z,5.20
2022-11-16T03:24:18.452Z,4.37
2022-11-16T03:26:54.604Z,4.60
2022-11-16T03:29:32.338Z,5.00
2022-11-16T03:32:11.558Z,4.53
2022-11-16T03:34:54.747Z,4.73
2022-11-16T03:37:27.637Z,4.90
2022-11-16T03:40:01.106Z,4.70
2022-11-16T03:42:32.183Z,4.30
2022-11-16T03:45:04.384Z,4.50
2022-11-16T03:47:35.219Z,3.90
2022-11-16T03:50:10.094Z,3.83
2022-11-16T03:52:44.002Z,3.73
2022-11-16T03:55:18.045Z,3.90
2022-11-16T03:57:48.793Z,3.17
2022-11-16T04:00:20.208Z,3.63
2022-11-16T04:02:50.956Z,3.00
2022-11-16T04:05:37.456Z,2.50
2022-11-16T04:08:21.153Z,3.00
2022-11-16T04:11:04.477Z,2.90
2022-11-16T04:13:49.340Z,2.97
2022-11-16T04:16:33.029Z,2.73
2022-11-16T04:19:24.731Z,2.90
2022-11-16T04:22:13.817Z,3.10
2022-11-16T04:24:48.607Z,2.70
2022-11-16T04:27:32.603Z,2.80
2022-11-16T04:30:05.249Z,2.10
2022-11-16T04:32:48.961Z,2.47
2022-11-16T04:35:33.803Z,2.37
2022-11-16T04:38:07.153Z,2.57
2022-11-16T04:40:37.863Z,2.67
2022-11-16T04:43:08.732Z,2.17
2022-11-16T04:45:52.036Z,2.90
2022-11-16T04:48:23.538Z,2.17
2022-11-16T04:50:54.369Z,2.40
2022-11-16T04:53:30.462Z,2.67
2022-11-16T04:56:01.259Z,2.17
2022-11-16T04:58:33.671Z,2.00
2022-11-16T05:01:06.657Z,8.87
2022-11-16T05:03:38.455Z,2.40
2022-11-16T05:06:10.400Z,1.90
2022-11-16T05:08:43.734Z,2.20
2022-11-16T05:11:14.394Z,2.07
2022-11-16T05:13:45.091Z,2.10
2022-11-16T05:16:15.833Z,2.50
2022-11-16T05:19:06.516Z,2.40
2022-11-16T05:21:34.570Z,1.63
2022-11-16T05:24:21.150Z,2.53
2022-11-16T05:26:52.835Z,2.33
2022-11-16T05:29:23.610Z,2.50
2022-11-16T05:31:54.292Z,3.10
2022-11-16T05:34:26.766Z,2.60
2022-11-16T05:36:59.551Z,2.90
2022-11-16T05:39:32.871Z,3.00
2022-11-16T05:42:09.469Z,3.30
2022-11-16T05:44:40.270Z,3.27
2022-11-16T05:47:13.900Z,3.20
2022-11-16T05:49:47.030Z,3.50
2022-11-16T05:52:17.808Z,3.13
2022-11-16T05:54:52.806Z,2.77
2022-11-16T05:57:23.583Z,2.13
2022-11-16T05:59:55.583Z,1.93
2022-11-16T06:02:26.337Z,2.00
2022-11-16T06:04:57.423Z,2.17
2022-11-16T06:07:32.140Z,1.90
2022-11-16T06:10:05.589Z,1.70
2022-11-16T06:12:36.350Z,1.50
2022-11-16T06:15:16.294Z,1.30
2022-11-16T06:17:47.074Z,1.90
2022-11-16T06:20:18.295Z,1.50
2022-11-16T06:22:49.055Z,1.70
2022-11-16T06:25:22.637Z,1.43
2022-11-16T06:27:53.287Z,1.70
2022-11-16T06:30:24.018Z,2.27
2022-11-16T06:32:54.993Z,1.40
2022-11-16T06:35:25.863Z,1.67
2022-11-16T06:37:56.630Z,1.80
2022-11-16T06:40:29.982Z,1.80
2022-11-16T06:43:00.773Z,1.60
2022-11-16T06:45:31.617Z,1.60
2022-11-16T06:48:02.448Z,1.33
2022-11-16T06:50:33.523Z,1.43
2022-11-16T06:53:04.258Z,1.73
2022-11-16T06:55:37.682Z,1.50
2022-11-16T06:58:08.456Z,1.40
2022-11-16T07:00:40.355Z,1.83
2022-11-16T07:03:11.265Z,1.60
2022-11-16T07:05:43.890Z,1.63
2022-11-16T07:08:14.704Z,1.57
2022-11-16T07:10:48.135Z,1.80
2022-11-16T07:13:18.872Z,2.30
2022-11-16T07:15:49.614Z,1.80
2022-11-16T07:18:21.889Z,2.77
2022-11-16T07:20:53.393Z,2.10
2022-11-16T07:23:24.163Z,2.23
2022-11-16T07:26:03.002Z,2.20
2022-11-16T07:28:37.475Z,2.43
2022-11-16T07:31:10.569Z,2.53
2022-11-16T07:33:41.702Z,2.90
2022-11-16T07:36:14.642Z,3.30
2022-11-16T07:38:45.381Z,3.10
2022-11-16T07:41:21.889Z,3.30
2022-11-16T07:43:53.368Z,3.10
2022-11-16T07:49:19.384Z,3.30
2022-11-16T07:51:56.098Z,2.97
2022-11-16T07:54:26.917Z,3.27
2022-11-16T07:57:03.485Z,3.53
2022-11-16T07:59:34.524Z,2.70
2022-11-16T08:02:05.347Z,3.27
2022-11-16T08:04:38.676Z,2.87
2022-11-16T08:07:09.675Z,2.47
2022-11-16T08:09:40.821Z,2.97
2022-11-16T08:12:16.506Z,2.33
2022-11-16T08:14:47.348Z,2.47
2022-11-16T08:17:20.282Z,2.60
2022-11-16T08:19:51.461Z,2.57
2022-11-16T08:22:22.418Z,2.30
2022-11-16T08:24:55.529Z,2.17
2022-11-16T08:27:29.694Z,2.60
2022-11-16T08:30:04.329Z,2.00
2022-11-16T08:32:35.375Z,2.40
2022-11-16T08:35:07.230Z,3.20
2022-11-16T08:37:40.643Z,2.43
2022-11-16T08:40:12.542Z,2.87
2022-11-16T08:42:48.402Z,2.93
2022-11-16T08:45:19.293Z,3.00
2022-11-16T08:48:03.177Z,2.37
2022-11-16T08:50:55.496Z,2.60
2022-11-16T08:53:25.730Z,3.13
2022-11-16T08:55:56.388Z,3.10
2022-11-16T08:58:33.221Z,2.90
2022-11-16T09:01:10.592Z,3.10
2022-11-16T09:03:41.617Z,2.87
2022-11-16T09:06:13.539Z,3.20
2022-11-16T09:08:46.290Z,3.17
2022-11-16T09:11:20.318Z,2.90
2022-11-16T09:14:01.471Z,3.07
2022-11-16T09:16:33.751Z,2.70
2022-11-16T09:19:04.749Z,2.90
2022-11-16T09:21:36.494Z,2.50
2022-11-16T09:24:10.532Z,2.80
2022-11-16T09:26:43.314Z,2.50
2022-11-16T09:29:21.227Z,2.87
2022-11-16T09:31:52.093Z,2.20
2022-11-16T09:34:23.109Z,2.00
2022-11-16T09:36:54.419Z,2.40
2022-11-16T09:39:30.940Z,2.30
2022-11-16T09:42:24.213Z,2.23
2022-11-16T09:45:23.537Z,1.80
2022-11-16T09:48:02.302Z,1.80
2022-11-16T09:50:41.922Z,1.90
2022-11-16T09:53:43.020Z,2.20
2022-11-16T09:56:22.267Z,2.17
2022-11-16T09:59:02.857Z,1.60
2022-11-16T10:01:42.923Z,1.40
2022-11-16T10:04:22.098Z,1.70
2022-11-16T10:06:57.682Z,1.80
2022-11-16T10:09:32.225Z,2.40
2022-11-16T10:12:13.291Z,1.83
2022-11-16T10:15:07.378Z,1.43
2022-11-16T10:17:57.937Z,1.60
2022-11-16T10:20:48.206Z,1.40
2022-11-16T10:23:34.832Z,1.80
2022-11-16T10:26:19.036Z,1.70
2022-11-16T10:29:06.036Z,1.83
2022-11-16T10:31:56.683Z,1.47
2022-11-16T10:34:42.686Z,1.57
2022-11-16T10:37:16.124Z,1.60
2022-11-16T10:39:49.645Z,1.90
2022-11-16T10:42:26.252Z,1.80
2022-11-16T10:45:07.279Z,1.50
2022-11-16T10:47:44.815Z,1.43
2022-11-16T10:50:35.575Z,1.87
2022-11-16T10:53:22.920Z,1.40
2022-11-16T10:56:04.692Z,1.53
2022-11-16T10:58:55.935Z,1.80
2022-11-16T11:01:39.490Z,1.60
2022-11-16T11:04:25.601Z,1.30
2022-11-16T11:07:01.502Z,1.33
2022-11-16T11:09:36.797Z,1.70
2022-11-16T11:12:29.473Z,1.60
2022-11-16T11:15:13.445Z,1.60
2022-11-16T11:17:47.097Z,1.47
2022-11-16T11:20:25.170Z,2.33
2022-11-16T11:23:05.911Z,1.30
2022-11-16T11:25:39.128Z,1.20
2022-11-16T11:28:19.348Z,2.13
2022-11-16T11:31:06.075Z,1.30
2022-11-16T11:33:44.115Z,1.70
2022-11-16T11:36:22.814Z,1.13
2022-11-16T11:39:09.716Z,1.30
2022-11-16T11:41:47.096Z,1.07
2022-11-16T11:44:21.683Z,1.10
2022-11-16T11:49:54.356Z,1.50
2022-11-16T11:52:34.025Z,1.30
2022-11-16T11:55:13.697Z,1.53
2022-11-16T11:57:47.271Z,1.30
2022-11-16T12:00:20.841Z,1.57
2022-11-16T12:03:30.516Z,1.63
2022-11-16T12:06:11.748Z,2.17
2022-11-16T12:09:05.402Z,1.63
2022-11-16T12:11:53.527Z,2.03
2022-11-16T12:14:49.609Z,2.27
2022-11-16T12:17:29.982Z,1.60
2022-11-16T12:20:19.418Z,1.60
2022-11-16T12:23:28.883Z,1.67
2022-11-16T12:26:05.310Z,2.43
2022-11-16T12:28:56.091Z,1.30
2022-11-16T12:31:54.231Z,1.63
2022-11-16T12:34:36.587Z,1.80
2022-11-16T12:37:16.077Z,1.70
2022-11-16T12:39:53.521Z,1.83
2022-11-16T12:42:40.420Z,1.77
2022-11-16T12:45:45.502Z,1.60
2022-11-16T12:48:44.079Z,1.27
2022-11-16T12:51:28.883Z,1.53
2022-11-16T12:54:35.245Z,1.23
2022-11-16T12:57:14.919Z,1.30
2022-11-16T13:00:03.959Z,1.33
2022-11-16T13:02:58.386Z,1.57
2022-11-16T13:05:56.241Z,1.40
2022-11-16T13:08:46.398Z,1.40
2022-11-16T13:11:23.650Z,1.00
2022-11-16T13:14:01.305Z,1.30
2022-11-16T13:16:33.370Z,1.63
2022-11-16T13:19:09.772Z,1.27
2022-11-16T13:21:50.336Z,1.20
2022-11-16T13:24:33.101Z,1.27
2022-11-16T13:27:25.073Z,1.30
2022-11-16T13:30:01.964Z,1.20
2022-11-16T13:32:47.358Z,1.33
2022-11-16T13:35:21.425Z,1.70
2022-11-16T13:37:54.814Z,2.20
2022-11-16T13:40:31.514Z,1.20
2022-11-16T13:43:22.603Z,1.60
2022-11-16T13:46:00.265Z,1.20
2022-11-16T13:48:35.566Z,1.40
2022-11-16T13:51:11.068Z,1.57
2022-11-16T13:56:51.286Z,1.40
2022-11-16T13:59:29.812Z,1.13
2022-11-16T14:02:02.651Z,1.13
2022-11-16T14:04:53.633Z,1.33
2022-11-16T14:07:42.820Z,1.20
2022-11-16T14:10:35.914Z,1.30
2022-11-16T14:13:11.184Z,1.27
2022-11-16T14:15:42.017Z,1.67
2022-11-16T14:18:37.348Z,1.20
2022-11-16T14:21:24.578Z,1.13
2022-11-16T14:24:17.381Z,2.00
2022-11-16T14:27:03.347Z,1.33
2022-11-16T14:29:52.267Z,1.20
2022-11-16T14:32:26.112Z,1.40
2022-11-16T14:34:59.470Z,1.77
2022-11-16T14:37:37.471Z,1.70
2022-11-16T14:40:18.442Z,1.50
2022-11-16T14:45:44.079Z,1.60
2022-11-16T14:48:18.818Z,1.37
2022-11-16T14:51:05.354Z,1.47
2022-11-16T14:53:39.295Z,1.23
2022-11-16T14:56:15.591Z,1.40
2022-11-16T14:58:54.143Z,1.20
2022-11-16T15:01:28.694Z,1.17
2022-11-16T15:04:03.342Z,1.20
2022-11-16T15:06:39.612Z,1.80
2022-11-16T15:09:17.329Z,1.67
2022-11-16T15:12:04.728Z,1.80
2022-11-16T15:14:38.308Z,1.70
2022-11-16T15:17:10.634Z,1.57
2022-11-16T15:19:41.757Z,1.63
2022-11-16T15:22:20.566Z,1.73
2022-11-16T15:24:58.245Z,1.70
2022-11-16T15:27:38.449Z,1.90
2022-11-16T15:30:22.413Z,1.80
2022-11-16T15:32:55.510Z,1.30
2022-11-16T15:35:28.792Z,1.70
2022-11-16T15:38:08.318Z,1.40
2022-11-16T15:40:39.358Z,1.27
2022-11-16T15:43:14.879Z,1.47
2022-11-16T15:45:46.457Z,1.47
2022-11-16T15:48:22.473Z,1.60
2022-11-16T15:51:10.867Z,1.60
2022-11-16T15:53:44.056Z,1.73
2022-11-16T15:56:18.412Z,1.50
2022-11-16T15:58:52.394Z,1.73
2022-11-16T16:01:24.913Z,2.47
2022-11-16T16:04:04.737Z,1.50
2022-11-16T16:06:53.013Z,1.77
2022-11-16T16:09:29.148Z,1.63
2022-11-16T16:12:20.476Z,1.40
2022-11-16T16:15:24.398Z,2.17
2022-11-16T16:17:59.009Z,2.00
2022-11-16T16:20:32.209Z,2.33
2022-11-16T16:23:11.928Z,2.53
2022-11-16T16:25:50.114Z,2.80
2022-11-16T16:28:23.541Z,2.20
2022-11-16T16:30:57.007Z,2.00
2022-11-16T16:33:29.752Z,2.30
2022-11-16T16:36:05.195Z,2.23
2022-11-16T16:38:39.072Z,1.90
2022-11-16T16:41:10.669Z,2.57
2022-11-16T16:43:41.441Z,1.60
2022-11-16T16:46:15.772Z,1.70
2022-11-16T16:48:51.033Z,2.30
2022-11-16T16:51:22.914Z,1.83
2022-11-16T16:53:56.686Z,2.73
2022-11-16T16:56:27.471Z,1.90
2022-11-16T16:58:59.807Z,2.00
2022-11-16T17:01:33.222Z,2.10
2022-11-16T17:04:04.043Z,2.60
2022-11-16T17:06:35.525Z,2.57
2022-11-16T17:09:09.385Z,2.90
2022-11-16T17:11:40.333Z,2.73
2022-11-16T17:14:11.564Z,3.10
2022-11-16T17:16:49.319Z,2.97
2022-11-16T17:19:28.500Z,3.00
2022-11-16T17:22:00.019Z,2.73
2022-11-16T17:24:30.934Z,2.30
2022-11-16T17:27:03.878Z,2.90
2022-11-16T17:29:34.652Z,2.90
2022-11-16T17:32:10.994Z,4.10
2022-11-16T17:34:41.761Z,3.60
2022-11-16T17:37:13.990Z,3.00
2022-11-16T17:39:47.216Z,3.37
2022-11-16T17:42:17.971Z,3.80
2022-11-16T17:44:49.823Z,2.90
2022-11-16T17:47:29.527Z,3.00
2022-11-16T17:50:00.395Z,2.67
2022-11-16T17:52:36.622Z,3.33
2022-11-16T17:55:08.278Z,3.73
2022-11-16T17:57:41.548Z,2.90
2022-11-16T18:00:16.503Z,3.73
2022-11-16T18:02:49.875Z,3.93
2022-11-16T18:05:21.717Z,3.70
2022-11-16T18:07:52.573Z,3.63
2022-11-16T18:10:25.890Z,2.70
2022-11-16T18:12:57.446Z,2.43
2022-11-16T18:15:29.201Z,2.63
2022-11-16T18:18:04.986Z,2.70
2022-11-16T18:20:40.986Z,2.17
2022-11-16T18:23:11.977Z,2.63
2022-11-16T18:25:44.018Z,2.37
2022-11-16T18:28:15.064Z,2.20
2022-11-16T18:30:45.817Z,3.00
2022-11-16T18:33:27.820Z,3.07
2022-11-16T18:36:01.447Z,3.20
2022-11-16T18:38:32.265Z,2.70
2022-11-16T18:41:08.596Z,2.83
2022-11-16T18:43:39.479Z,3.83
2022-11-16T18:46:11.138Z,2.83
2022-11-16T18:48:44.485Z,3.20
2022-11-16T18:51:16.410Z,2.70
2022-11-16T18:53:47.589Z,2.63
2022-11-16T18:56:18.749Z,2.70
2022-11-16T18:58:53.373Z,2.63
2022-11-16T19:01:27.416Z,2.50
2022-11-16T19:04:00.974Z,3.30
2022-11-16T19:06:34.639Z,3.00
2022-11-16T19:09:09.936Z,2.70
2022-11-16T19:11:40.803Z,2.73
2022-11-16T19:14:11.713Z,3.97
2022-11-16T19:16:54.045Z,2.87
2022-11-16T19:19:30.002Z,2.73
2022-11-16T19:22:01.062Z,2.57
2022-11-16T19:24:32.040Z,3.07
2022-11-16T19:27:04.473Z,3.00
2022-11-16T19:29:35.240Z,3.20
2022-11-16T19:32:08.195Z,3.10
2022-11-16T19:34:41.604Z,2.80
2022-11-16T19:37:12.465Z,3.50
2022-11-16T19:39:43.367Z,3.30
2022-11-16T19:42:14.176Z,3.73
2022-11-16T19:44:45.028Z,3.83
2022-11-16T19:47:17.550Z,3.77
2022-11-16T19:49:53.081Z,3.13
2022-11-16T19:52:24.241Z,3.33
2022-11-16T19:54:57.327Z,3.40
2022-11-16T19:57:28.553Z,3.30
2022-11-16T19:59:59.529Z,3.70
2022-11-16T20:02:31.846Z,3.60
2022-11-16T20:05:08.289Z,4.80
2022-11-16T20:07:42.512Z,3.90
2022-11-16T20:10:13.257Z,3.80
2022-11-16T20:12:44.205Z,3.70
2022-11-16T20:15:15.052Z,3.90
2022-11-16T20:17:45.765Z,3.43
2022-11-16T20:20:21.306Z,3.70
2022-11-16T20:22:54.796Z,3.67
2022-11-16T20:25:25.601Z,4.10
2022-11-16T20:27:56.442Z,3.73
2022-11-16T20:30:27.189Z,4.20
2022-11-16T20:32:57.972Z,3.77
2022-11-16T20:35:31.362Z,3.93
2022-11-16T20:38:03.124Z,3.90
2022-11-16T20:40:34.016Z,3.10
2022-11-16T20:43:05.232Z,3.63
2022-11-16T20:45:36.861Z,3.17
2022-11-16T20:48:08.052Z,3.30
2022-11-16T20:50:41.419Z,3.37
2022-11-16T20:53:12.178Z,2.70
2022-11-16T20:55:43.051Z,3.07
2022-11-16T20:58:17.524Z,2.97
2022-11-16T21:00:52.636Z,2.90
2022-11-16T21:03:23.504Z,2.40
2022-11-16T21:05:57.327Z,3.27
2022-11-16T21:08:29.644Z,3.10
2022-11-16T21:11:03.222Z,3.07
2022-11-16T21:13:46.701Z,3.10
2022-11-16T21:16:17.871Z,3.00
2022-11-16T21:18:50.276Z,3.10
2022-11-16T21:21:23.876Z,2.73
2022-11-16T21:23:55.630Z,2.57
2022-11-16T21:26:28.943Z,2.20
2022-11-16T21:29:01.358Z,2.57
2022-11-16T21:31:33.817Z,3.33
2022-11-16T21:34:08.775Z,2.63
2022-11-16T21:36:42.159Z,2.50
2022-11-16T21:39:12.906Z,2.80
2022-11-16T21:41:46.695Z,2.20
2022-11-16T21:44:17.479Z,2.67
2022-11-16T21:46:48.271Z,2.47
2022-11-16T21:49:21.562Z,2.47
2022-11-16T21:51:54.885Z,1.97
2022-11-16T21:54:45.682Z,2.20
2022-11-16T21:57:16.713Z,2.37
2022-11-16T21:59:47.509Z,2.30
2022-11-16T22:02:20.634Z,2.27
2022-11-16T22:05:04.605Z,1.80
2022-11-16T22:07:39.374Z,1.93
2022-11-16T22:10:12.746Z,2.20
2022-11-16T22:12:45.182Z,2.03
2022-11-16T22:15:16.039Z,2.13
2022-11-16T22:17:47.518Z,2.80
2022-11-16T22:20:19.321Z,2.23
2022-11-16T22:22:52.790Z,2.00
2022-11-16T22:25:25.952Z,2.43
2022-11-16T22:28:19.678Z,2.50
2022-11-16T22:30:51.664Z,2.20
2022-11-16T22:33:23.172Z,2.40
2022-11-16T22:35:53.978Z,2.23
2022-11-16T22:38:28.754Z,2.30
2022-11-16T22:41:00.517Z,2.50
2022-11-16T22:43:33.271Z,2.17
2022-11-16T22:46:05.511Z,2.37
2022-11-16T22:48:39.209Z,2.40
2022-11-16T22:51:18.617Z,2.03
2022-11-16T22:53:55.273Z,2.20
2022-11-16T22:56:29.663Z,2.07
2022-11-16T22:59:01.290Z,2.10
2022-11-16T23:01:34.486Z,2.10
2022-11-16T23:04:05.518Z,1.97
2022-11-16T23:06:36.372Z,2.13
2022-11-16T23:09:10.093Z,2.10
2022-11-16T23:11:53.361Z,2.03
2022-11-16T23:14:38.426Z,2.17
2022-11-16T23:17:11.836Z,2.20
2022-11-16T23:19:55.134Z,2.17
2022-11-16T23:22:38.561Z,1.80
2022-11-16T23:25:26.976Z,2.20
2022-11-16T23:28:09.787Z,1.87
2022-11-16T23:30:40.701Z,2.83
2022-11-16T23:33:11.741Z,2.03
2022-11-16T23:35:42.582Z,1.60
2022-11-16T23:38:13.456Z,2.10
2022-11-16T23:40:46.867Z,1.90
2022-11-16T23:43:44.860Z,2.27
2022-11-16T23:46:15.859Z,2.00
2022-11-16T23:48:46.996Z,1.80
2022-11-16T23:51:19.397Z,2.00
2022-11-16T23:53:53.371Z,1.90
2022-11-16T23:56:28.050Z,1.70
2022-11-16T23:58:59.974Z,1.80
